sensor_id;sensor_type;location;lat;lon;timestamp;pressure;altitude;pressure_sealevel;temperature;humidity
69184;BME280;56291;53.960;27.550;2023-08-06T02:02:26;98543.09;;;20.44;71.68
69184;BME280;56291;53.960;27.550;2023-08-06T02:04:53;98543.91;;;20.44;71.04
69184;BME280;56291;53.960;27.550;2023-08-06T02:07:19;98551.09;;;20.44;70.76
69184;BME280;56291;53.960;27.550;2023-08-06T02:09:45;98540.84;;;20.41;70.90
69184;BME280;56291;53.960;27.550;2023-08-06T02:12:11;98547.44;;;20.38;71.67
69184;BME280;56291;53.960;27.550;2023-08-06T02:14:37;98550.94;;;20.39;70.69
69184;BME280;56291;53.960;27.550;2023-08-06T02:17:03;98549.72;;;20.34;70.90
69184;BME280;56291;53.960;27.550;2023-08-06T02:19:30;98542.97;;;20.32;71.24
69184;BME280;56291;53.960;27.550;2023-08-06T02:21:56;98547.72;;;20.30;71.61
69184;BME280;56291;53.960;27.550;2023-08-06T02:24:22;98549.78;;;20.28;71.25
69184;BME280;56291;53.960;27.550;2023-08-06T02:26:48;98547.91;;;20.28;72.03
69184;BME280;56291;53.960;27.550;2023-08-06T02:29:17;98542.00;;;20.26;71.43
69184;BME280;56291;53.960;27.550;2023-08-06T02:31:43;98541.19;;;20.26;71.44
69184;BME280;56291;53.960;27.550;2023-08-06T02:34:09;98541.41;;;20.24;71.57
69184;BME280;56291;53.960;27.550;2023-08-06T02:36:36;98545.91;;;20.24;71.12
69184;BME280;56291;53.960;27.550;2023-08-06T02:39:02;98549.25;;;20.19;71.06
69184;BME280;56291;53.960;27.550;2023-08-06T02:41:28;98557.47;;;20.17;71.63
69184;BME280;56291;53.960;27.550;2023-08-06T02:43:54;98556.84;;;20.15;71.72
69184;BME280;56291;53.960;27.550;2023-08-06T02:46:20;98556.84;;;20.15;71.65
69184;BME280;56291;53.960;27.550;2023-08-06T02:48:47;98542.69;;;20.15;71.34
69184;BME280;56291;53.960;27.550;2023-08-06T02:51:13;98549.06;;;20.14;71.54
69184;BME280;56291;53.960;27.550;2023-08-06T02:53:40;98555.66;;;20.11;71.50
69184;BME280;56291;53.960;27.550;2023-08-06T02:56:06;98556.09;;;20.08;72.87
69184;BME280;56291;53.960;27.550;2023-08-06T02:58:33;98551.59;;;20.09;71.42
69184;BME280;56291;53.960;27.550;2023-08-06T03:01:03;98557.13;;;20.07;71.19
69184;BME280;56291;53.960;27.550;2023-08-06T03:03:32;98550.97;;;20.07;71.73
69184;BME280;56291;53.960;27.550;2023-08-06T03:05:59;98553.63;;;20.07;71.69
69184;BME280;56291;53.960;27.550;2023-08-06T03:08:26;98560.00;;;20.06;72.05
69184;BME280;56291;53.960;27.550;2023-08-06T03:10:52;98552.22;;;20.04;72.82
69184;BME280;56291;53.960;27.550;2023-08-06T03:13:19;98553.06;;;20.05;73.08
69184;BME280;56291;53.960;27.550;2023-08-06T03:15:58;98555.91;;;20.03;72.57
69184;BME280;56291;53.960;27.550;2023-08-06T03:18:26;98559.41;;;20.03;72.89
69184;BME280;56291;53.960;27.550;2023-08-06T03:20:52;98554.50;;;20.00;72.38
69184;BME280;56291;53.960;27.550;2023-08-06T03:23:19;98557.78;;;20.02;72.97
69184;BME280;56291;53.960;27.550;2023-08-06T03:25:45;98551.63;;;20.02;71.91
69184;BME280;56291;53.960;27.550;2023-08-06T03:28:12;98546.50;;;20.00;72.08
69184;BME280;56291;53.960;27.550;2023-08-06T03:30:38;98547.75;;;19.98;72.37
69184;BME280;56291;53.960;27.550;2023-08-06T03:33:04;98545.88;;;19.98;72.40
69184;BME280;56291;53.960;27.550;2023-08-06T03:35:31;98547.34;;;19.94;73.11
69184;BME280;56291;53.960;27.550;2023-08-06T03:37:57;98548.78;;;19.97;72.58
69184;BME280;56291;53.960;27.550;2023-08-06T03:40:23;98541.56;;;19.97;73.25
69184;BME280;56291;53.960;27.550;2023-08-06T03:42:49;98538.91;;;19.97;72.73
69184;BME280;56291;53.960;27.550;2023-08-06T03:45:15;98541.78;;;19.96;72.81
69184;BME280;56291;53.960;27.550;2023-08-06T03:47:42;98533.97;;;20.01;72.99
69184;BME280;56291;53.960;27.550;2023-08-06T03:50:08;98535.00;;;20.00;73.80
69184;BME280;56291;53.960;27.550;2023-08-06T03:52:34;98543.63;;;20.02;73.23
69184;BME280;56291;53.960;27.550;2023-08-06T03:55:02;98545.22;;;20.03;72.98
69184;BME280;56291;53.960;27.550;2023-08-06T03:57:28;98535.38;;;20.03;73.63
69184;BME280;56291;53.960;27.550;2023-08-06T03:59:55;98537.03;;;20.05;73.08
69184;BME280;56291;53.960;27.550;2023-08-06T04:02:21;98528.81;;;20.06;73.62
69184;BME280;56291;53.960;27.550;2023-08-06T04:04:48;98526.34;;;20.05;73.17
69184;BME280;56291;53.960;27.550;2023-08-06T04:07:14;98522.41;;;20.07;73.80
69184;BME280;56291;53.960;27.550;2023-08-06T04:09:58;98522.00;;;20.10;74.27
69184;BME280;56291;53.960;27.550;2023-08-06T04:12:25;98521.78;;;20.12;73.29
69184;BME280;56291;53.960;27.550;2023-08-06T04:14:52;98514.78;;;20.11;73.68
69184;BME280;56291;53.960;27.550;2023-08-06T04:17:19;98503.09;;;20.12;73.99
69184;BME280;56291;53.960;27.550;2023-08-06T04:19:53;98503.44;;;20.15;73.54
69184;BME280;56291;53.960;27.550;2023-08-06T04:22:22;98510.66;;;20.15;72.98
69184;BME280;56291;53.960;27.550;2023-08-06T04:24:48;98513.09;;;20.16;73.66
69184;BME280;56291;53.960;27.550;2023-08-06T04:27:15;98506.50;;;20.19;73.52
69184;BME280;56291;53.960;27.550;2023-08-06T04:29:45;98502.81;;;20.20;73.34
69184;BME280;56291;53.960;27.550;2023-08-06T04:32:11;98497.25;;;20.22;73.13
69184;BME280;56291;53.960;27.550;2023-08-06T04:34:38;98494.34;;;20.23;73.58
69184;BME280;56291;53.960;27.550;2023-08-06T04:37:05;98499.03;;;20.28;74.28
69184;BME280;56291;53.960;27.550;2023-08-06T04:39:31;98501.47;;;20.29;73.55
69184;BME280;56291;53.960;27.550;2023-08-06T04:41:57;98505.78;;;20.30;73.47
69184;BME280;56291;53.960;27.550;2023-08-06T04:44:25;98503.72;;;20.32;73.63
69184;BME280;56291;53.960;27.550;2023-08-06T04:46:52;98504.09;;;20.36;73.49
69184;BME280;56291;53.960;27.550;2023-08-06T04:49:21;98505.53;;;20.39;73.65
69184;BME280;56291;53.960;27.550;2023-08-06T04:51:48;98506.72;;;20.43;73.38
69184;BME280;56291;53.960;27.550;2023-08-06T04:54:15;98504.19;;;20.48;73.45
69184;BME280;56291;53.960;27.550;2023-08-06T04:56:41;98507.47;;;20.50;73.62
69184;BME280;56291;53.960;27.550;2023-08-06T04:59:07;98493.66;;;20.53;73.29
69184;BME280;56291;53.960;27.550;2023-08-06T05:01:33;98491.59;;;20.55;73.31
69184;BME280;56291;53.960;27.550;2023-08-06T05:03:59;98488.47;;;20.58;73.48
69184;BME280;56291;53.960;27.550;2023-08-06T05:08:52;98486.75;;;20.70;73.31
69184;BME280;56291;53.960;27.550;2023-08-06T05:11:18;98480.94;;;20.74;73.29
69184;BME280;56291;53.960;27.550;2023-08-06T05:13:44;98476.78;;;20.78;73.43
69184;BME280;56291;53.960;27.550;2023-08-06T05:16:10;98481.69;;;20.81;72.93
69184;BME280;56291;53.960;27.550;2023-08-06T05:18:36;98476.72;;;20.84;73.47
69184;BME280;56291;53.960;27.550;2023-08-06T05:21:03;98473.38;;;20.89;72.93
69184;BME280;56291;53.960;27.550;2023-08-06T05:23:29;98478.25;;;20.92;72.83
69184;BME280;56291;53.960;27.550;2023-08-06T05:25:56;98468.53;;;20.98;72.79
69184;BME280;56291;53.960;27.550;2023-08-06T05:28:22;98474.47;;;21.00;72.46
69184;BME280;56291;53.960;27.550;2023-08-06T05:30:48;98464.75;;;21.05;72.43
69184;BME280;56291;53.960;27.550;2023-08-06T05:33:14;98463.25;;;21.10;73.62
69184;BME280;56291;53.960;27.550;2023-08-06T05:35:41;98465.81;;;21.16;72.96
69184;BME280;56291;53.960;27.550;2023-08-06T05:38:08;98466.44;;;21.18;72.58
69184;BME280;56291;53.960;27.550;2023-08-06T05:40:34;98456.06;;;21.22;72.46
69184;BME280;56291;53.960;27.550;2023-08-06T05:43:01;98461.81;;;21.26;72.35
69184;BME280;56291;53.960;27.550;2023-08-06T05:45:27;98452.28;;;21.30;72.43
69184;BME280;56291;53.960;27.550;2023-08-06T05:47:53;98458.34;;;21.37;72.77
69184;BME280;56291;53.960;27.550;2023-08-06T05:50:24;98456.06;;;21.41;72.26
69184;BME280;56291;53.960;27.550;2023-08-06T05:52:50;98451.84;;;21.45;71.64
69184;BME280;56291;53.960;27.550;2023-08-06T05:55:18;98443.53;;;21.53;71.99
69184;BME280;56291;53.960;27.550;2023-08-06T05:57:44;98440.19;;;21.58;72.13
69184;BME280;56291;53.960;27.550;2023-08-06T06:00:11;98444.25;;;21.60;71.69
69184;BME280;56291;53.960;27.550;2023-08-06T06:02:37;98430.28;;;21.70;71.76
69184;BME280;56291;53.960;27.550;2023-08-06T06:05:03;98426.13;;;21.74;72.21
69184;BME280;56291;53.960;27.550;2023-08-06T06:07:29;98424.59;;;21.78;72.13
69184;BME280;56291;53.960;27.550;2023-08-06T06:09:56;98421.38;;;21.88;72.19
69184;BME280;56291;53.960;27.550;2023-08-06T06:12:22;98422.06;;;21.95;72.07
69184;BME280;56291;53.960;27.550;2023-08-06T06:14:48;98413.69;;;22.03;71.47
69184;BME280;56291;53.960;27.550;2023-08-06T06:17:14;98418.94;;;22.10;71.49
69184;BME280;56291;53.960;27.550;2023-08-06T06:19:41;98408.91;;;22.17;72.43
69184;BME280;56291;53.960;27.550;2023-08-06T06:22:07;98412.03;;;22.26;72.31
69184;BME280;56291;53.960;27.550;2023-08-06T06:24:33;98418.97;;;22.34;72.09
69184;BME280;56291;53.960;27.550;2023-08-06T06:26:59;98410.56;;;22.42;71.61
69184;BME280;56291;53.960;27.550;2023-08-06T06:29:26;98414.50;;;22.51;71.38
69184;BME280;56291;53.960;27.550;2023-08-06T06:31:52;98411.81;;;22.63;70.97
69184;BME280;56291;53.960;27.550;2023-08-06T06:34:18;98408.28;;;22.74;71.44
69184;BME280;56291;53.960;27.550;2023-08-06T06:36:44;98406.25;;;22.82;70.71
69184;BME280;56291;53.960;27.550;2023-08-06T06:39:10;98403.22;;;22.90;70.33
69184;BME280;56291;53.960;27.550;2023-08-06T06:41:36;98393.16;;;22.97;70.96
69184;BME280;56291;53.960;27.550;2023-08-06T06:44:03;98391.38;;;23.15;70.45
69184;BME280;56291;53.960;27.550;2023-08-06T06:46:29;98396.91;;;23.25;70.61
69184;BME280;56291;53.960;27.550;2023-08-06T06:48:55;98388.31;;;23.40;70.64
69184;BME280;56291;53.960;27.550;2023-08-06T06:51:21;98386.59;;;23.51;70.06
69184;BME280;56291;53.960;27.550;2023-08-06T06:53:47;98380.19;;;23.69;68.76
69184;BME280;56291;53.960;27.550;2023-08-06T06:56:15;98386.78;;;23.78;68.79
69184;BME280;56291;53.960;27.550;2023-08-06T06:58:41;98385.91;;;23.89;68.18
69184;BME280;56291;53.960;27.550;2023-08-06T07:01:08;98391.66;;;23.98;68.15
69184;BME280;56291;53.960;27.550;2023-08-06T07:03:36;98392.88;;;24.07;68.07
69184;BME280;56291;53.960;27.550;2023-08-06T07:06:02;98384.16;;;24.17;67.24
69184;BME280;56291;53.960;27.550;2023-08-06T07:08:29;98386.44;;;24.25;67.03
69184;BME280;56291;53.960;27.550;2023-08-06T07:11:03;98386.81;;;24.34;67.21
69184;BME280;56291;53.960;27.550;2023-08-06T07:13:30;98387.00;;;24.50;66.54
69184;BME280;56291;53.960;27.550;2023-08-06T07:15:56;98379.03;;;24.60;66.66
69184;BME280;56291;53.960;27.550;2023-08-06T07:18:23;98379.22;;;24.70;66.06
69184;BME280;56291;53.960;27.550;2023-08-06T07:20:53;98379.00;;;24.77;65.90
69184;BME280;56291;53.960;27.550;2023-08-06T07:23:23;98375.41;;;24.93;65.69
69184;BME280;56291;53.960;27.550;2023-08-06T07:25:50;98369.59;;;25.02;65.33
69184;BME280;56291;53.960;27.550;2023-08-06T07:28:16;98366.47;;;25.15;64.84
69184;BME280;56291;53.960;27.550;2023-08-06T07:30:44;98360.63;;;25.23;64.57
69184;BME280;56291;53.960;27.550;2023-08-06T07:33:10;98360.78;;;25.34;64.71
69184;BME280;56291;53.960;27.550;2023-08-06T07:35:37;98360.31;;;25.47;63.26
69184;BME280;56291;53.960;27.550;2023-08-06T07:38:03;98357.97;;;25.56;63.27
69184;BME280;56291;53.960;27.550;2023-08-06T07:40:30;98357.00;;;25.67;63.12
69184;BME280;56291;53.960;27.550;2023-08-06T07:42:56;98351.09;;;25.75;62.97
69184;BME280;56291;53.960;27.550;2023-08-06T07:45:22;98346.06;;;25.84;62.93
69184;BME280;56291;53.960;27.550;2023-08-06T07:47:48;98355.56;;;25.97;62.77
69184;BME280;56291;53.960;27.550;2023-08-06T07:50:14;98349.19;;;26.08;62.32
69184;BME280;56291;53.960;27.550;2023-08-06T07:52:41;98339.56;;;26.23;62.23
69184;BME280;56291;53.960;27.550;2023-08-06T07:55:08;98349.88;;;26.41;61.46
69184;BME280;56291;53.960;27.550;2023-08-06T07:57:34;98346.41;;;26.51;61.60
69184;BME280;56291;53.960;27.550;2023-08-06T08:00:01;98334.56;;;26.62;60.52
69184;BME280;56291;53.960;27.550;2023-08-06T08:02:28;98338.41;;;26.72;60.60
69184;BME280;56291;53.960;27.550;2023-08-06T08:05:02;98335.22;;;26.80;60.39
69184;BME280;56291;53.960;27.550;2023-08-06T08:07:31;98329.81;;;26.90;60.14
69184;BME280;56291;53.960;27.550;2023-08-06T08:09:57;98327.41;;;27.04;60.27
69184;BME280;56291;53.960;27.550;2023-08-06T08:12:23;98327.16;;;27.16;59.76
69184;BME280;56291;53.960;27.550;2023-08-06T08:14:49;98333.38;;;27.27;59.26
69184;BME280;56291;53.960;27.550;2023-08-06T08:17:15;98328.28;;;27.41;59.15
69184;BME280;56291;53.960;27.550;2023-08-06T08:19:43;98321.53;;;27.48;58.41
69184;BME280;56291;53.960;27.550;2023-08-06T08:22:16;98320.69;;;27.63;58.48
69184;BME280;56291;53.960;27.550;2023-08-06T08:24:42;98321.75;;;27.78;57.57
69184;BME280;56291;53.960;27.550;2023-08-06T08:27:11;98315.81;;;27.86;57.63
69184;BME280;56291;53.960;27.550;2023-08-06T08:29:38;98317.13;;;27.94;57.16
69184;BME280;56291;53.960;27.550;2023-08-06T08:32:05;98326.59;;;28.01;56.95
69184;BME280;56291;53.960;27.550;2023-08-06T08:34:32;98315.47;;;28.18;57.48
69184;BME280;56291;53.960;27.550;2023-08-06T08:36:58;98314.56;;;28.33;56.58
69184;BME280;56291;53.960;27.550;2023-08-06T08:39:27;98318.59;;;28.46;56.11
69184;BME280;56291;53.960;27.550;2023-08-06T08:41:59;98309.88;;;28.54;55.34
69184;BME280;56291;53.960;27.550;2023-08-06T08:44:25;98307.38;;;28.68;55.22
69184;BME280;56291;53.960;27.550;2023-08-06T08:46:55;98302.16;;;28.82;55.31
69184;BME280;56291;53.960;27.550;2023-08-06T08:49:24;98302.88;;;28.98;54.90
69184;BME280;56291;53.960;27.550;2023-08-06T08:51:55;98298.69;;;29.16;53.75
69184;BME280;56291;53.960;27.550;2023-08-06T08:54:24;98294.00;;;29.27;53.20
69184;BME280;56291;53.960;27.550;2023-08-06T08:56:54;98299.06;;;29.39;54.19
69184;BME280;56291;53.960;27.550;2023-08-06T08:59:21;98294.63;;;29.48;53.42
69184;BME280;56291;53.960;27.550;2023-08-06T09:01:48;98293.44;;;29.60;52.88
69184;BME280;56291;53.960;27.550;2023-08-06T09:04:18;98293.84;;;29.72;53.07
69184;BME280;56291;53.960;27.550;2023-08-06T09:06:48;98282.81;;;29.93;52.97
69184;BME280;56291;53.960;27.550;2023-08-06T09:09:33;98266.66;;;30.06;50.70
69184;BME280;56291;53.960;27.550;2023-08-06T09:12:02;98279.19;;;30.21;51.61
69184;BME280;56291;53.960;27.550;2023-08-06T09:14:33;98265.22;;;30.33;48.96
69184;BME280;56291;53.960;27.550;2023-08-06T09:17:00;98271.28;;;30.49;50.51
69184;BME280;56291;53.960;27.550;2023-08-06T09:19:27;98279.19;;;30.65;50.35
69184;BME280;56291;53.960;27.550;2023-08-06T09:21:56;98266.28;;;30.75;51.24
69184;BME280;56291;53.960;27.550;2023-08-06T09:24:22;98265.31;;;30.85;48.87
69184;BME280;56291;53.960;27.550;2023-08-06T09:26:49;98267.53;;;31.02;50.74
69184;BME280;56291;53.960;27.550;2023-08-06T09:29:15;98265.88;;;31.20;49.70
69184;BME280;56291;53.960;27.550;2023-08-06T09:31:50;98262.25;;;31.25;49.55
69184;BME280;56291;53.960;27.550;2023-08-06T09:34:28;98244.88;;;31.40;49.04
69184;BME280;56291;53.960;27.550;2023-08-06T09:36:55;98248.22;;;31.51;49.64
69184;BME280;56291;53.960;27.550;2023-08-06T09:39:31;98246.53;;;31.69;49.48
69184;BME280;56291;53.960;27.550;2023-08-06T09:41:59;98238.81;;;31.76;47.89
69184;BME280;56291;53.960;27.550;2023-08-06T09:44:26;98236.38;;;31.88;46.47
69184;BME280;56291;53.960;27.550;2023-08-06T09:46:54;98234.84;;;32.10;48.93
69184;BME280;56291;53.960;27.550;2023-08-06T09:49:26;98239.47;;;32.23;48.06
69184;BME280;56291;53.960;27.550;2023-08-06T09:51:53;98239.13;;;32.39;49.50
69184;BME280;56291;53.960;27.550;2023-08-06T09:54:23;98235.28;;;32.54;47.88
69184;BME280;56291;53.960;27.550;2023-08-06T09:56:57;98230.88;;;32.44;43.10
69184;BME280;56291;53.960;27.550;2023-08-06T09:59:24;98230.88;;;32.67;46.27
69184;BME280;56291;53.960;27.550;2023-08-06T10:01:53;98234.84;;;32.60;44.98
69184;BME280;56291;53.960;27.550;2023-08-06T10:04:23;98224.84;;;32.70;42.95
69184;BME280;56291;53.960;27.550;2023-08-06T10:06:49;98222.88;;;33.07;45.83
69184;BME280;56291;53.960;27.550;2023-08-06T10:09:16;98223.66;;;33.30;46.40
69184;BME280;56291;53.960;27.550;2023-08-06T10:11:52;98216.97;;;33.45;44.33
69184;BME280;56291;53.960;27.550;2023-08-06T10:14:33;98215.59;;;33.56;41.77
69184;BME280;56291;53.960;27.550;2023-08-06T10:17:02;98200.69;;;33.62;45.29
69184;BME280;56291;53.960;27.550;2023-08-06T10:19:30;98210.47;;;33.63;43.49
69184;BME280;56291;53.960;27.550;2023-08-06T10:22:26;98200.38;;;33.64;41.82
69184;BME280;56291;53.960;27.550;2023-08-06T10:24:55;98208.25;;;33.66;41.70
69184;BME280;56291;53.960;27.550;2023-08-06T10:27:40;98194.22;;;33.50;40.47
69184;BME280;56291;53.960;27.550;2023-08-06T10:32:54;98185.25;;;34.07;40.51
69184;BME280;56291;53.960;27.550;2023-08-06T10:38:15;98181.69;;;33.97;39.32
69184;BME280;56291;53.960;27.550;2023-08-06T10:43:36;98184.63;;;34.27;41.63
69184;BME280;56291;53.960;27.550;2023-08-06T10:46:13;98174.53;;;34.37;40.97
69184;BME280;56291;53.960;27.550;2023-08-06T10:48:49;98168.88;;;34.77;39.95
69184;BME280;56291;53.960;27.550;2023-08-06T10:51:15;98172.59;;;34.72;41.11
69184;BME280;56291;53.960;27.550;2023-08-06T10:53:44;98164.09;;;34.47;38.20
69184;BME280;56291;53.960;27.550;2023-08-06T10:56:15;98166.59;;;34.79;39.88
69184;BME280;56291;53.960;27.550;2023-08-06T10:59:04;98161.78;;;34.93;40.96
69184;BME280;56291;53.960;27.550;2023-08-06T11:01:35;98156.22;;;35.20;40.31
69184;BME280;56291;53.960;27.550;2023-08-06T11:04:02;98160.19;;;35.40;37.95
69184;BME280;56291;53.960;27.550;2023-08-06T11:06:30;98154.84;;;35.05;38.92
69184;BME280;56291;53.960;27.550;2023-08-06T11:08:56;98147.94;;;35.46;39.53
69184;BME280;56291;53.960;27.550;2023-08-06T11:11:23;98132.53;;;35.41;36.50
69184;BME280;56291;53.960;27.550;2023-08-06T11:13:51;98135.28;;;35.24;36.48
69184;BME280;56291;53.960;27.550;2023-08-06T11:16:29;98134.19;;;35.63;38.00
69184;BME280;56291;53.960;27.550;2023-08-06T11:18:56;98129.16;;;35.65;37.37
69184;BME280;56291;53.960;27.550;2023-08-06T11:21:26;98127.22;;;35.96;37.55
69184;BME280;56291;53.960;27.550;2023-08-06T11:23:52;98128.94;;;36.22;37.47
69184;BME280;56291;53.960;27.550;2023-08-06T11:26:21;98117.31;;;36.25;35.89
69184;BME280;56291;53.960;27.550;2023-08-06T11:28:51;98133.63;;;36.21;36.84
69184;BME280;56291;53.960;27.550;2023-08-06T11:31:22;98118.84;;;36.34;35.44
69184;BME280;56291;53.960;27.550;2023-08-06T11:33:56;98119.25;;;36.24;34.15
69184;BME280;56291;53.960;27.550;2023-08-06T11:36:32;98117.28;;;36.33;35.45
69184;BME280;56291;53.960;27.550;2023-08-06T11:39:02;98107.38;;;36.20;35.81
69184;BME280;56291;53.960;27.550;2023-08-06T11:41:33;98102.81;;;36.24;33.78
69184;BME280;56291;53.960;27.550;2023-08-06T11:44:01;98098.81;;;36.22;33.71
69184;BME280;56291;53.960;27.550;2023-08-06T11:46:27;98105.31;;;36.38;35.34
69184;BME280;56291;53.960;27.550;2023-08-06T11:48:58;98102.66;;;36.63;35.08
69184;BME280;56291;53.960;27.550;2023-08-06T11:51:29;98088.19;;;36.20;33.10
69184;BME280;56291;53.960;27.550;2023-08-06T11:53:58;98100.44;;;36.56;34.41
69184;BME280;56291;53.960;27.550;2023-08-06T11:59:15;98083.75;;;36.82;35.36
69184;BME280;56291;53.960;27.550;2023-08-06T12:01:50;98094.06;;;36.98;34.87
69184;BME280;56291;53.960;27.550;2023-08-06T12:04:20;98087.31;;;36.95;33.43
69184;BME280;56291;53.960;27.550;2023-08-06T12:06:50;98077.31;;;36.78;34.87
69184;BME280;56291;53.960;27.550;2023-08-06T12:09:17;98072.78;;;36.95;34.36
69184;BME280;56291;53.960;27.550;2023-08-06T12:11:48;98067.88;;;37.00;32.10
69184;BME280;56291;53.960;27.550;2023-08-06T12:14:15;98059.78;;;37.04;34.92
69184;BME280;56291;53.960;27.550;2023-08-06T12:16:44;98064.47;;;37.28;34.88
69184;BME280;56291;53.960;27.550;2023-08-06T12:19:11;98067.41;;;36.86;33.31
69184;BME280;56291;53.960;27.550;2023-08-06T12:21:38;98049.59;;;37.04;33.65
69184;BME280;56291;53.960;27.550;2023-08-06T12:24:04;98048.47;;;37.06;34.33
69184;BME280;56291;53.960;27.550;2023-08-06T12:26:36;98046.63;;;36.97;33.15
69184;BME280;56291;53.960;27.550;2023-08-06T12:29:02;98047.75;;;36.72;33.58
69184;BME280;56291;53.960;27.550;2023-08-06T12:31:28;98049.94;;;36.91;33.63
69184;BME280;56291;53.960;27.550;2023-08-06T12:33:54;98048.25;;;37.11;33.19
69184;BME280;56291;53.960;27.550;2023-08-06T12:36:20;98037.72;;;37.13;32.34
69184;BME280;56291;53.960;27.550;2023-08-06T12:38:49;98044.72;;;36.98;33.40
69184;BME280;56291;53.960;27.550;2023-08-06T12:41:16;98024.78;;;37.26;33.42
69184;BME280;56291;53.960;27.550;2023-08-06T12:43:42;98027.63;;;37.54;31.94
69184;BME280;56291;53.960;27.550;2023-08-06T12:46:12;98016.88;;;36.62;31.78
69184;BME280;56291;53.960;27.550;2023-08-06T12:48:39;98016.47;;;36.85;32.32
69184;BME280;56291;53.960;27.550;2023-08-06T12:51:06;98007.28;;;37.43;32.85
69184;BME280;56291;53.960;27.550;2023-08-06T12:53:32;98003.88;;;37.21;31.15
69184;BME280;56291;53.960;27.550;2023-08-06T12:56:00;98009.63;;;37.28;33.33
69184;BME280;56291;53.960;27.550;2023-08-06T12:58:26;97990.31;;;37.12;33.17
69184;BME280;56291;53.960;27.550;2023-08-06T13:00:52;97994.44;;;36.94;31.51
69184;BME280;56291;53.960;27.550;2023-08-06T13:03:18;97982.19;;;36.66;29.88
69184;BME280;56291;53.960;27.550;2023-08-06T13:05:49;97971.69;;;36.44;30.87
69184;BME280;56291;53.960;27.550;2023-08-06T13:08:17;97977.13;;;36.31;30.51
69184;BME280;56291;53.960;27.550;2023-08-06T13:10:45;97968.25;;;36.47;32.44
69184;BME280;56291;53.960;27.550;2023-08-06T13:13:11;97970.63;;;36.36;31.92
69184;BME280;56291;53.960;27.550;2023-08-06T13:15:38;97966.09;;;36.77;32.08
69184;BME280;56291;53.960;27.550;2023-08-06T13:18:04;97974.09;;;36.12;30.15
69184;BME280;56291;53.960;27.550;2023-08-06T13:20:31;97971.91;;;36.63;31.50
69184;BME280;56291;53.960;27.550;2023-08-06T13:22:59;97964.41;;;36.85;31.37
69184;BME280;56291;53.960;27.550;2023-08-06T13:25:27;97963.00;;;37.28;33.02
69184;BME280;56291;53.960;27.550;2023-08-06T13:27:54;97954.88;;;37.19;30.37
69184;BME280;56291;53.960;27.550;2023-08-06T13:30:22;97957.97;;;37.06;32.93
69184;BME280;56291;53.960;27.550;2023-08-06T13:32:49;97958.53;;;37.11;31.14
69184;BME280;56291;53.960;27.550;2023-08-06T13:35:15;97950.88;;;37.29;32.48
69184;BME280;56291;53.960;27.550;2023-08-06T13:37:41;97955.41;;;37.50;32.32
69184;BME280;56291;53.960;27.550;2023-08-06T13:40:08;97941.16;;;37.32;32.40
69184;BME280;56291;53.960;27.550;2023-08-06T13:42:40;97938.94;;;36.84;30.41
69184;BME280;56291;53.960;27.550;2023-08-06T13:45:08;97953.78;;;36.83;32.48
69184;BME280;56291;53.960;27.550;2023-08-06T13:47:40;97939.72;;;36.85;32.07
69184;BME280;56291;53.960;27.550;2023-08-06T13:50:10;97931.41;;;36.94;30.40
69184;BME280;56291;53.960;27.550;2023-08-06T13:52:59;97938.03;;;36.80;31.65
69184;BME280;56291;53.960;27.550;2023-08-06T13:55:30;97913.66;;;36.29;30.21
69184;BME280;56291;53.960;27.550;2023-08-06T13:58:00;97922.81;;;36.70;32.01
69184;BME280;56291;53.960;27.550;2023-08-06T14:03:05;97918.72;;;36.64;32.09
69184;BME280;56291;53.960;27.550;2023-08-06T14:05:34;97904.22;;;36.64;30.99
69184;BME280;56291;53.960;27.550;2023-08-06T14:08:07;97915.94;;;36.77;29.81
69184;BME280;56291;53.960;27.550;2023-08-06T14:10:40;97905.66;;;36.24;31.52
69184;BME280;56291;53.960;27.550;2023-08-06T14:13:09;97895.56;;;36.49;31.14
69184;BME280;56291;53.960;27.550;2023-08-06T14:15:37;97899.41;;;36.24;30.71
69184;BME280;56291;53.960;27.550;2023-08-06T14:18:07;97893.81;;;36.69;32.36
69184;BME280;56291;53.960;27.550;2023-08-06T14:20:35;97897.25;;;36.54;32.26
69184;BME280;56291;53.960;27.550;2023-08-06T14:23:01;97892.91;;;36.28;31.45
69184;BME280;56291;53.960;27.550;2023-08-06T14:25:27;97887.56;;;36.57;31.60
69184;BME280;56291;53.960;27.550;2023-08-06T14:27:56;97894.59;;;36.21;31.56
69184;BME280;56291;53.960;27.550;2023-08-06T14:30:22;97885.06;;;36.39;30.48
69184;BME280;56291;53.960;27.550;2023-08-06T14:32:54;97882.06;;;36.69;31.89
69184;BME280;56291;53.960;27.550;2023-08-06T14:35:26;97891.78;;;36.66;31.54
69184;BME280;56291;53.960;27.550;2023-08-06T14:37:59;97889.56;;;36.10;31.55
69184;BME280;56291;53.960;27.550;2023-08-06T14:43:06;97885.47;;;36.16;31.54
69184;BME280;56291;53.960;27.550;2023-08-06T14:45:32;97863.81;;;36.48;31.59
69184;BME280;56291;53.960;27.550;2023-08-06T14:47:58;97876.38;;;36.49;30.12
69184;BME280;56291;53.960;27.550;2023-08-06T14:50:28;97880.81;;;36.29;30.23
69184;BME280;56291;53.960;27.550;2023-08-06T14:52:58;97887.63;;;36.23;31.85
69184;BME280;56291;53.960;27.550;2023-08-06T14:55:28;97868.84;;;36.46;30.43
69184;BME280;56291;53.960;27.550;2023-08-06T14:57:57;97872.38;;;36.59;32.11
69184;BME280;56291;53.960;27.550;2023-08-06T15:00:25;97872.59;;;36.54;32.30
69184;BME280;56291;53.960;27.550;2023-08-06T15:02:55;97881.63;;;36.79;32.52
69184;BME280;56291;53.960;27.550;2023-08-06T15:05:26;97862.91;;;36.57;30.53
69184;BME280;56291;53.960;27.550;2023-08-06T15:08:02;97870.69;;;36.42;30.68
69184;BME280;56291;53.960;27.550;2023-08-06T15:10:29;97878.28;;;36.12;30.52
69184;BME280;56291;53.960;27.550;2023-08-06T15:12:58;97871.78;;;36.04;31.44
69184;BME280;56291;53.960;27.550;2023-08-06T15:15:27;97874.84;;;36.27;32.23